Time;durP1;ratioP1;P1;durP2;ratioP2;P2;SDS_P1;SDS_P2;PMS_P1;PMS_P2;Temp;Humidity;BMP_temperature;BMP_pressure;BME280_temperature;BME280_humidity;BME280_pressure;Samples;Min_cycle;Max_cycle;Signal;HPM_P1;HPM_P2
2021/12/07 00:00:31;;;;;;;;;;;7.00;90.10;;;;;;5063126;28;19912;-61
2021/12/07 00:02:56;;;;;;;;;;;6.90;90.00;;;;;;5053220;28;19915;-61
2021/12/07 00:05:22;;;;;;;;;;;6.90;90.00;;;;;;5061015;28;19947;-61
2021/12/07 00:07:47;;;;;;;;;;;6.90;89.90;;;;;;5045814;28;20329;-61
2021/12/07 00:10:13;;;;;;;;;;;6.90;89.80;;;;;;5063179;28;20431;-61
2021/12/07 00:12:41;;;;;;;;;;;6.90;89.90;;;;;;5037939;28;19908;-61
2021/12/07 00:15:08;;;;;;;;;;;6.90;89.90;;;;;;5060433;28;19908;-61
2021/12/07 00:17:33;;;;;;;;;;;6.90;89.90;;;;;;5061807;28;20334;-61
2021/12/07 00:19:59;;;;;;;;;;;6.80;90.00;;;;;;5046639;28;20381;-61
2021/12/07 00:22:24;;;;;;;;;;;6.80;90.00;;;;;;5046455;28;20013;-61
2021/12/07 00:24:50;;;;;;;;;;;7.00;90.10;;;;;;5059685;28;19908;-62
2021/12/07 00:27:15;;;;;;;;;;;6.80;90.10;;;;;;5044459;28;19909;-61
2021/12/07 00:29:41;;;;;;;;;;;6.80;90.10;;;;;;5062328;28;20333;-62
2021/12/07 00:32:32;;;;;;;;;;;6.80;90.10;;;;;;5045792;28;19951;-61
2021/12/07 00:37:21;;;;;;;;;;;6.70;90.20;;;;;;5061555;28;19923;-62
2021/12/07 00:39:46;;;;;;;;;;;6.70;90.30;;;;;;5049945;28;19966;-62
2021/12/07 00:42:11;;;;;;;;;;;6.70;90.30;;;;;;5045588;28;19916;-62
2021/12/07 00:44:37;;;;;;;;;;;6.70;90.40;;;;;;5045768;28;19939;-63
2021/12/07 00:47:02;;;;;;;;;;;6.60;90.40;;;;;;5053839;28;19949;-61
2021/12/07 00:49:28;;;;;;;;;;;6.70;90.50;;;;;;5044633;28;19908;-62
2021/12/07 00:51:53;;;;;;;;;;;6.60;90.50;;;;;;5048051;28;19973;-62
2021/12/07 00:54:19;;;;;;;;;;;6.60;90.50;;;;;;5059738;28;19920;-61
2021/12/07 00:56:44;;;;;;;;;;;6.60;90.50;;;;;;5042817;28;20725;-61
2021/12/07 00:59:10;;;;;;;;;;;6.60;90.80;;;;;;5063946;28;19908;-61
2021/12/07 01:01:35;;;;;;;;;;;6.60;90.60;;;;;;5045467;28;20053;-62
2021/12/07 01:04:00;;;;;;;;;;;6.50;90.60;;;;;;5044448;28;19944;-61
2021/12/07 01:06:33;;;;;;;;;;;6.50;90.60;;;;;;5060655;28;19904;-62
2021/12/07 01:25:25;;;;;;;;;;;6.50;90.80;;;;;;5063386;28;20459;-61
2021/12/07 01:27:52;;;;;;;;;;;6.50;90.80;;;;;;5060103;28;19916;-62
2021/12/07 01:30:22;;;;;;;;;;;6.50;90.80;;;;;;5058984;28;19915;-62
2021/12/07 02:01:54;;;;;;;;;;;6.40;91.00;;;;;;5062753;28;20062;-62
2021/12/07 02:04:19;;;;;;;;;;;6.30;91.00;;;;;;5065475;28;20405;-61
2021/12/07 02:06:44;;;;;;;;;;;6.30;91.00;;;;;;5046314;28;19922;-61
2021/12/07 02:09:11;;;;;;;;;;;6.30;91.00;;;;;;5043007;28;19959;-62
2021/12/07 02:11:44;;;;;;;;;;;6.30;91.10;;;;;;5063420;28;19915;-61
2021/12/07 02:14:16;;;;;;;;;;;6.30;91.10;;;;;;5047285;28;19986;-62
2021/12/07 02:16:49;;;;;;;;;;;6.30;91.10;;;;;;5064617;28;19909;-62
2021/12/07 02:19:15;;;;;;;;;;;6.30;91.00;;;;;;5031072;28;19935;-62
2021/12/07 02:21:40;;;;;;;;;;;6.30;91.10;;;;;;5046925;28;19916;-62
2021/12/07 02:24:06;;;;;;;;;;;6.30;91.10;;;;;;5063559;28;19927;-62
2021/12/07 02:26:31;;;;;;;;;;;6.30;91.10;;;;;;5045184;28;19917;-62
2021/12/07 02:28:57;;;;;;;;;;;6.30;91.20;;;;;;5063776;28;20016;-62
2021/12/07 02:31:22;;;;;;;;;;;6.30;91.20;;;;;;5065245;28;20249;-62
2021/12/07 02:33:48;;;;;;;;;;;6.20;91.20;;;;;;5063042;28;19985;-62
2021/12/07 02:36:13;;;;;;;;;;;6.20;91.20;;;;;;5046688;28;19970;-62
2021/12/07 02:38:39;;;;;;;;;;;6.20;91.20;;;;;;5046577;28;19916;-62
2021/12/07 02:41:04;;;;;;;;;;;6.20;91.30;;;;;;5030768;28;19916;-62
2021/12/07 02:43:30;;;;;;;;;;;6.20;91.30;;;;;;5065644;28;19912;-62
2021/12/07 02:45:55;;;;;;;;;;;6.20;91.30;;;;;;5048765;28;19916;-62
2021/12/07 02:48:21;;;;;;;;;;;6.20;91.40;;;;;;5047953;28;20316;-62
2021/12/07 02:50:47;;;;;;;;;;;6.10;91.30;;;;;;5047261;28;19908;-62
2021/12/07 02:53:13;;;;;;;;;;;6.10;91.40;;;;;;5046651;28;19924;-62
2021/12/07 02:55:38;;;;;;;;;;;6.10;91.40;;;;;;5047148;28;19908;-62
2021/12/07 02:58:04;;;;;;;;;;;6.10;91.40;;;;;;5031467;28;19931;-62
2021/12/07 03:00:37;;;;;;;;;;;6.10;91.40;;;;;;5047484;28;19908;-62
2021/12/07 03:03:08;;;;;;;;;;;6.10;91.40;;;;;;5062271;28;19985;-62
2021/12/07 03:05:45;;;;;;;;;;;6.10;91.50;;;;;;5046702;28;19991;-61
2021/12/07 03:09:43;;;;;;;;;;;6.10;91.50;;;;;;5063911;28;19916;-61
2021/12/07 03:27:37;;;;;;;;;;;6.00;91.60;;;;;;5064052;28;19919;-61
2021/12/07 03:30:07;;;;;;;;;;;6.00;91.60;;;;;;5063888;28;20031;-61
2021/12/07 03:32:32;;;;;;;;;;;6.00;91.60;;;;;;5063150;28;19908;-61
2021/12/07 03:34:58;;;;;;;;;;;6.00;91.60;;;;;;5048323;28;19917;-61
2021/12/07 03:37:23;;;;;;;;;;;6.00;91.70;;;;;;5063224;28;19916;-62
2021/12/07 03:39:48;;;;;;;;;;;6.00;91.60;;;;;;5047257;28;19912;-62
2021/12/07 03:42:14;;;;;;;;;;;6.00;91.70;;;;;;5046509;28;20358;-62
2021/12/07 03:44:39;;;;;;;;;;;6.00;91.70;;;;;;5065056;28;19912;-62
2021/12/07 03:47:05;;;;;;;;;;;6.00;91.80;;;;;;5063558;28;19919;-62
2021/12/07 03:49:30;;;;;;;;;;;6.00;91.80;;;;;;5047984;28;19908;-62
2021/12/07 03:51:56;;;;;;;;;;;5.90;91.80;;;;;;5046512;28;20238;-62
2021/12/07 03:54:21;;;;;;;;;;;5.90;91.80;;;;;;5046516;28;19953;-62
2021/12/07 03:56:47;;;;;;;;;;;5.90;91.90;;;;;;5046273;28;19927;-62
2021/12/07 03:59:12;;;;;;;;;;;5.90;91.80;;;;;;5046689;28;19904;-62
2021/12/07 04:01:38;;;;;;;;;;;6.00;91.90;;;;;;5047773;28;20400;-61
2021/12/07 04:04:03;;;;;;;;;;;5.90;91.90;;;;;;5064751;28;19946;-61
2021/12/07 04:06:29;;;;;;;;;;;5.90;91.90;;;;;;5062420;28;19916;-61
2021/12/07 04:08:54;;;;;;;;;;;5.90;92.00;;;;;;5062817;28;20004;-61
2021/12/07 04:11:20;;;;;;;;;;;5.90;92.00;;;;;;5045953;28;19912;-62
2021/12/07 04:13:45;;;;;;;;;;;5.90;92.10;;;;;;5062218;28;20348;-62
2021/12/07 04:16:11;;;;;;;;;;;5.90;92.10;;;;;;5046822;28;19918;-62
2021/12/07 04:18:36;;;;;;;;;;;5.80;92.10;;;;;;5046160;28;19916;-62
2021/12/07 04:21:02;;;;;;;;;;;5.90;92.10;;;;;;5051504;28;19911;-63
2021/12/07 04:23:28;;;;;;;;;;;5.90;92.10;;;;;;5063296;28;20395;-62
2021/12/07 04:25:54;;;;;;;;;;;5.90;92.10;;;;;;5046769;28;19908;-62
2021/12/07 04:28:19;;;;;;;;;;;5.90;92.10;;;;;;5046393;28;19926;-62
2021/12/07 04:30:45;;;;;;;;;;;5.90;92.20;;;;;;5047183;28;19904;-62
2021/12/07 04:33:10;;;;;;;;;;;5.90;92.20;;;;;;5060764;28;20415;-63
2021/12/07 04:35:36;;;;;;;;;;;5.80;92.20;;;;;;5061832;28;19966;-62
2021/12/07 04:38:02;;;;;;;;;;;5.80;92.10;;;;;;5059621;28;19909;-63
2021/12/07 04:40:27;;;;;;;;;;;5.80;92.20;;;;;;5045849;28;20010;-63
2021/12/07 04:42:53;;;;;;;;;;;5.80;92.20;;;;;;5062669;28;19916;-62
2021/12/07 04:48:30;;;;;;;;;;;5.70;92.20;;;;;;5062363;28;20429;-62
2021/12/07 04:59:01;;;;;;;;;;;5.80;92.20;;;;;;5062147;28;19915;-63
2021/12/07 05:01:27;;;;;;;;;;;5.80;92.20;;;;;;5045516;28;19904;-62
2021/12/07 05:03:56;;;;;;;;;;;5.80;92.20;;;;;;5059737;28;20243;-62
2021/12/07 05:06:26;;;;;;;;;;;5.80;92.20;;;;;;5060788;28;19985;-63
2021/12/07 05:08:58;;;;;;;;;;;5.80;92.30;;;;;;5061613;28;20055;-63
2021/12/07 05:11:32;;;;;;;;;;;5.80;92.30;;;;;;5046024;28;19916;-62
2021/12/07 05:19:05;;;;;;;;;;;5.80;92.30;;;;;;5048292;28;19905;-62
2021/12/07 05:24:21;;;;;;;;;;;5.80;92.30;;;;;;5065188;28;19942;-62
2021/12/07 05:40:02;;;;;;;;;;;5.80;92.30;;;;;;5064394;28;19910;-63
2021/12/07 05:42:28;;;;;;;;;;;5.80;92.40;;;;;;5065609;28;20298;-63
2021/12/07 05:44:54;;;;;;;;;;;5.70;92.40;;;;;;5066295;28;19944;-63
2021/12/07 05:47:19;;;;;;;;;;;5.80;92.40;;;;;;5048988;28;19913;-62
2021/12/07 05:49:44;;;;;;;;;;;5.70;92.50;;;;;;5049202;28;19912;-62
2021/12/07 05:52:10;;;;;;;;;;;5.70;92.40;;;;;;5064258;28;19911;-63
2021/12/07 05:54:35;;;;;;;;;;;5.70;92.40;;;;;;5047505;28;19908;-62
2021/12/07 05:57:01;;;;;;;;;;;5.70;92.50;;;;;;5065412;28;19991;-61
2021/12/07 05:59:26;;;;;;;;;;;5.70;92.50;;;;;;5067160;28;19905;-62
2021/12/07 06:01:52;;;;;;;;;;;5.70;92.40;;;;;;5067154;28;20320;-63
2021/12/07 06:04:17;;;;;;;;;;;5.70;92.40;;;;;;5045993;28;19974;-62
2021/12/07 06:06:43;;;;;;;;;;;5.70;92.40;;;;;;5065641;28;19924;-62
2021/12/07 06:09:08;;;;;;;;;;;5.70;92.40;;;;;;5064392;28;19908;-62
2021/12/07 06:11:34;;;;;;;;;;;5.70;92.50;;;;;;5050218;28;19919;-62
2021/12/07 06:13:59;;;;;;;;;;;5.70;92.50;;;;;;5049736;28;19943;-61
2021/12/07 06:16:29;;;;;;;;;;;5.70;92.50;;;;;;5065560;28;19908;-61
2021/12/07 06:18:55;;;;;;;;;;;5.70;92.50;;;;;;5047304;28;20351;-61
2021/12/07 06:21:20;;;;;;;;;;;5.60;92.50;;;;;;5046639;28;19912;-62
2021/12/07 06:23:46;;;;;;;;;;;5.70;92.50;;;;;;5062417;28;19919;-62
2021/12/07 06:26:11;;;;;;;;;;;5.60;92.50;;;;;;5048544;28;20394;-61
2021/12/07 06:28:36;;;;;;;;;;;5.60;92.60;;;;;;5049206;28;19912;-62
2021/12/07 06:31:02;;;;;;;;;;;5.60;92.60;;;;;;5063782;28;19911;-62
2021/12/07 06:33:27;;;;;;;;;;;5.60;92.70;;;;;;5065601;28;19915;-62
2021/12/07 06:35:57;;;;;;;;;;;5.60;92.70;;;;;;5052231;28;19965;-62
2021/12/07 06:38:32;;;;;;;;;;;5.60;92.70;;;;;;5064703;28;19913;-61
2021/12/07 06:40:58;;;;;;;;;;;5.60;92.80;;;;;;5048336;28;19913;-63
2021/12/07 06:43:23;;;;;;;;;;;5.60;92.90;;;;;;5047814;28;19916;-63
2021/12/07 06:45:49;;;;;;;;;;;5.60;92.90;;;;;;5063463;28;19913;-61
2021/12/07 06:48:15;;;;;;;;;;;5.60;93.00;;;;;;5047382;28;19927;-62
2021/12/07 06:50:40;;;;;;;;;;;5.60;93.00;;;;;;5048864;28;20316;-62
2021/12/07 06:53:06;;;;;;;;;;;5.60;93.10;;;;;;5063927;28;19916;-62
2021/12/07 06:55:31;;;;;;;;;;;5.60;93.10;;;;;;5045589;28;20299;-63
2021/12/07 06:57:57;;;;;;;;;;;5.60;93.10;;;;;;5063567;28;20150;-62
2021/12/07 07:00:22;;;;;;;;;;;5.60;93.10;;;;;;5063833;28;19931;-61
2021/12/07 07:02:48;;;;;;;;;;;5.60;93.30;;;;;;5046475;28;20363;-62
2021/12/07 07:05:13;;;;;;;;;;;5.60;93.10;;;;;;5047720;28;19950;-62
2021/12/07 07:07:39;;;;;;;;;;;5.60;93.10;;;;;;5046999;28;19939;-63
2021/12/07 07:10:05;;;;;;;;;;;5.60;93.10;;;;;;5047311;28;20000;-63
2021/12/07 07:12:30;;;;;;;;;;;5.60;93.20;;;;;;5063588;28;19951;-62
2021/12/07 07:14:56;;;;;;;;;;;5.50;93.20;;;;;;5046715;28;19916;-63
2021/12/07 07:17:21;;;;;;;;;;;5.60;93.20;;;;;;5062444;28;20069;-62
2021/12/07 07:19:47;;;;;;;;;;;5.60;93.20;;;;;;5062067;28;19916;-62
2021/12/07 07:22:12;;;;;;;;;;;5.50;93.20;;;;;;5045340;28;20326;-63
2021/12/07 07:24:37;;;;;;;;;;;5.50;93.20;;;;;;5060778;28;19974;-61
2021/12/07 07:27:03;;;;;;;;;;;5.50;93.20;;;;;;5043098;28;20197;-61
2021/12/07 07:29:28;;;;;;;;;;;5.50;93.20;;;;;;5038264;28;19981;-62
2021/12/07 07:31:54;;;;;;;;;;;5.50;93.20;;;;;;5048002;28;19920;-62
2021/12/07 07:34:19;;;;;;;;;;;5.50;93.30;;;;;;5063192;28;19908;-61
2021/12/07 07:36:45;;;;;;;;;;;5.50;93.30;;;;;;5058708;28;20371;-61
2021/12/07 07:39:10;;;;;;;;;;;5.50;93.30;;;;;;5043410;28;19909;-62
2021/12/07 07:41:36;;;;;;;;;;;5.50;93.20;;;;;;5062541;28;19919;-61
2021/12/07 07:44:02;;;;;;;;;;;5.50;93.30;;;;;;5043194;28;20057;-61
2021/12/07 07:46:27;;;;;;;;;;;5.50;93.20;;;;;;5042166;28;20129;-61
2021/12/07 07:48:52;;;;;;;;;;;5.50;93.20;;;;;;5058058;28;19916;-61
2021/12/07 07:51:18;;;;;;;;;;;5.50;93.20;;;;;;5054895;28;20098;-62
2021/12/07 07:53:43;;;;;;;;;;;5.60;93.20;;;;;;5042536;28;19919;-62
2021/12/07 07:56:09;;;;;;;;;;;5.50;93.20;;;;;;5044355;28;19912;-62
2021/12/07 07:58:34;;;;;;;;;;;5.50;93.20;;;;;;5063740;28;19912;-62
2021/12/07 08:01:00;;;;;;;;;;;5.50;93.20;;;;;;5043893;28;20007;-62
2021/12/07 08:03:25;;;;;;;;;;;5.60;93.20;;;;;;5042178;28;19924;-61
2021/12/07 08:05:51;;;;;;;;;;;5.50;93.10;;;;;;5042623;28;19926;-61
2021/12/07 08:08:16;;;;;;;;;;;5.60;93.10;;;;;;5060395;28;19943;-62
2021/12/07 08:10:42;;;;;;;;;;;5.60;93.10;;;;;;5044915;28;19908;-64
2021/12/07 08:13:07;;;;;;;;;;;5.60;93.20;;;;;;5044723;28;20382;-63
2021/12/07 08:15:36;;;;;;;;;;;5.50;93.20;;;;;;5042016;28;19999;-63
2021/12/07 08:18:02;;;;;;;;;;;5.60;93.20;;;;;;5056308;28;19908;-62
2021/12/07 08:20:27;;;;;;;;;;;5.60;93.20;;;;;;5056097;28;21583;-62
2021/12/07 08:22:53;;;;;;;;;;;5.60;93.30;;;;;;5046154;28;19917;-62
2021/12/07 08:25:18;;;;;;;;;;;5.60;93.20;;;;;;5060968;28;20411;-63
2021/12/07 08:27:44;;;;;;;;;;;5.60;93.30;;;;;;5060363;28;19916;-61
2021/12/07 08:30:10;;;;;;;;;;;5.60;93.30;;;;;;5041549;28;20420;-62
2021/12/07 08:32:35;;;;;;;;;;;5.60;93.20;;;;;;5058113;28;20163;-61
2021/12/07 08:35:00;;;;;;;;;;;5.60;93.30;;;;;;5035860;28;20302;-61
2021/12/07 08:37:26;;;;;;;;;;;5.60;93.30;;;;;;5059344;28;19916;-62
2021/12/07 08:39:51;;;;;;;;;;;5.60;93.30;;;;;;5043380;28;19908;-62
2021/12/07 08:42:19;;;;;;;;;;;5.60;93.30;;;;;;5045407;28;20328;-61
2021/12/07 08:44:45;;;;;;;;;;;5.60;93.30;;;;;;5060678;28;19964;-62
2021/12/07 08:47:10;;;;;;;;;;;5.70;93.20;;;;;;5059102;28;19974;-63
2021/12/07 08:49:36;;;;;;;;;;;5.60;93.20;;;;;;5023163;28;19973;-62
2021/12/07 08:52:01;;;;;;;;;;;5.70;93.30;;;;;;5056182;28;19927;-61
2021/12/07 08:59:37;;;;;;;;;;;5.60;93.30;;;;;;5038363;28;19912;-61
2021/12/07 09:00:00;;;;;;;;;;;5.70;93.30;;;;;;5058671;28;20371;-62
2021/12/07 09:02:26;;;;;;;;;;;5.70;93.30;;;;;;5038665;28;20367;-62
2021/12/07 09:04:53;;;;;;;;;;;5.70;93.30;;;;;;5060003;28;20004;-61
2021/12/07 09:07:19;;;;;;;;;;;5.70;93.30;;;;;;5056929;28;20185;-62
2021/12/07 09:09:44;;;;;;;;;;;5.80;93.20;;;;;;5035900;28;20412;-61
2021/12/07 09:12:10;;;;;;;;;;;5.70;93.20;;;;;;5036159;28;19923;-61
2021/12/07 09:14:36;;;;;;;;;;;5.70;93.10;;;;;;5041155;28;19937;-61
2021/12/07 09:17:02;;;;;;;;;;;5.80;93.20;;;;;;5058684;28;20284;-61
2021/12/07 09:19:27;;;;;;;;;;;5.70;93.10;;;;;;5045064;28;20299;-62
2021/12/07 09:21:53;;;;;;;;;;;5.80;93.20;;;;;;5049181;28;19917;-62
2021/12/07 09:24:18;;;;;;;;;;;5.80;93.10;;;;;;5044959;28;19938;-61
2021/12/07 09:26:43;;;;;;;;;;;5.80;93.10;;;;;;5047293;28;20394;-62
2021/12/07 09:29:09;;;;;;;;;;;5.80;93.20;;;;;;5060233;28;20042;-61
2021/12/07 09:31:34;;;;;;;;;;;5.80;93.20;;;;;;5038362;28;19916;-61
2021/12/07 09:34:00;;;;;;;;;;;5.80;93.20;;;;;;5057182;28;19912;-62
2021/12/07 09:36:25;;;;;;;;;;;5.80;93.20;;;;;;5059865;28;19920;-61
2021/12/07 09:38:51;;;;;;;;;;;5.80;93.20;;;;;;5043432;28;20581;-61
2021/12/07 09:41:18;;;;;;;;;;;5.90;93.10;;;;;;5045914;28;19916;-62
2021/12/07 09:43:44;;;;;;;;;;;5.90;93.10;;;;;;5042864;28;19917;-62
2021/12/07 09:46:10;;;;;;;;;;;5.90;93.10;;;;;;5043577;28;20382;-62
2021/12/07 09:48:35;;;;;;;;;;;5.90;93.10;;;;;;5043283;28;20511;-61
2021/12/07 09:51:01;;;;;;;;;;;5.90;93.10;;;;;;5044628;28;19912;-61
2021/12/07 09:53:28;;;;;;;;;;;6.00;93.10;;;;;;5057270;28;20460;-62
2021/12/07 09:55:54;;;;;;;;;;;6.00;93.00;;;;;;5043714;28;19917;-62
2021/12/07 09:58:20;;;;;;;;;;;6.00;93.00;;;;;;5058345;28;19916;-62
2021/12/07 10:00:45;;;;;;;;;;;6.30;93.10;;;;;;5026372;28;19912;-61
2021/12/07 10:03:11;;;;;;;;;;;6.10;93.10;;;;;;5057588;28;19912;-62
2021/12/07 10:05:36;;;;;;;;;;;6.00;93.10;;;;;;5063721;28;19916;-61
2021/12/07 10:08:03;;;;;;;;;;;5.90;93.10;;;;;;5047378;28;19912;-61
2021/12/07 10:10:39;;;;;;;;;;;6.10;93.10;;;;;;5028477;28;19916;-61
2021/12/07 10:13:05;;;;;;;;;;;6.10;93.10;;;;;;5027901;28;20248;-61
2021/12/07 10:15:30;;;;;;;;;;;6.10;93.00;;;;;;5043404;28;19927;-61
2021/12/07 10:18:00;;;;;;;;;;;6.10;92.90;;;;;;5057951;28;20342;-61
2021/12/07 10:20:31;;;;;;;;;;;6.20;92.90;;;;;;5049832;28;19943;-61
2021/12/07 10:23:00;;;;;;;;;;;6.20;92.90;;;;;;5044734;28;19959;-61
2021/12/07 10:25:26;;;;;;;;;;;6.20;92.90;;;;;;5047592;28;20336;-61
2021/12/07 10:27:52;;;;;;;;;;;6.20;92.90;;;;;;5044431;28;19920;-61
2021/12/07 10:30:18;;;;;;;;;;;6.20;92.90;;;;;;5057775;28;20462;-62
2021/12/07 10:32:55;;;;;;;;;;;6.20;92.90;;;;;;5060517;28;20008;-62
2021/12/07 10:35:27;;;;;;;;;;;6.20;93.00;;;;;;5043448;28;19930;-62
2021/12/07 10:38:25;;;;;;;;;;;6.20;93.00;;;;;;5058819;28;20348;-61
2021/12/07 10:41:22;;;;;;;;;;;6.20;93.00;;;;;;5021030;28;20761;-61
2021/12/07 10:43:49;;;;;;;;;;;6.20;93.00;;;;;;5033590;28;20452;-62
2021/12/07 10:46:28;;;;;;;;;;;6.30;93.10;;;;;;5055328;28;19920;-62
2021/12/07 10:49:07;;;;;;;;;;;6.30;93.00;;;;;;5057711;28;19955;-61
2021/12/07 10:51:33;;;;;;;;;;;6.30;93.00;;;;;;5040412;28;20220;-61
2021/12/07 10:53:58;;;;;;;;;;;6.30;93.00;;;;;;5062852;28;19973;-61
2021/12/07 10:56:36;;;;;;;;;;;6.30;93.20;;;;;;5041468;28;19963;-62
2021/12/07 10:59:04;;;;;;;;;;;6.40;93.40;;;;;;5039766;28;20279;-61
2021/12/07 11:01:49;;;;;;;;;;;6.30;93.10;;;;;;5059724;28;20540;-61
2021/12/07 11:04:25;;;;;;;;;;;6.40;93.00;;;;;;5043137;28;20682;-62
2021/12/07 11:07:11;;;;;;;;;;;6.40;93.00;;;;;;5060224;28;19966;-62
2021/12/07 11:09:37;;;;;;;;;;;6.40;93.00;;;;;;5057367;28;19991;-62
2021/12/07 11:12:07;;;;;;;;;;;6.40;93.00;;;;;;5058182;28;19916;-61
2021/12/07 11:14:48;;;;;;;;;;;6.40;92.90;;;;;;5062835;28;19954;-62
2021/12/07 11:17:13;;;;;;;;;;;6.40;93.00;;;;;;5044529;28;19916;-62
2021/12/07 11:19:39;;;;;;;;;;;6.40;93.00;;;;;;5057981;28;19981;-61
2021/12/07 11:22:04;;;;;;;;;;;6.40;93.00;;;;;;5058411;28;19919;-62
2021/12/07 11:24:34;;;;;;;;;;;6.40;93.00;;;;;;5057164;28;20440;-62
2021/12/07 11:29:55;;;;;;;;;;;6.50;93.00;;;;;;5045881;28;20035;-61
2021/12/07 11:32:21;;;;;;;;;;;6.50;92.90;;;;;;5061625;28;19916;-62
2021/12/07 11:34:47;;;;;;;;;;;6.60;93.00;;;;;;5065193;28;20174;-62
2021/12/07 11:37:12;;;;;;;;;;;6.50;93.00;;;;;;5044844;28;19928;-61
2021/12/07 11:39:47;;;;;;;;;;;6.50;93.00;;;;;;5062217;28;19912;-62
2021/12/07 11:42:12;;;;;;;;;;;6.50;92.90;;;;;;5061717;28;20330;-62
2021/12/07 11:44:45;;;;;;;;;;;6.50;92.90;;;;;;5063015;28;19924;-61
2021/12/07 11:47:10;;;;;;;;;;;6.60;93.00;;;;;;5042122;28;19920;-62
2021/12/07 11:49:37;;;;;;;;;;;6.60;92.90;;;;;;5060570;28;20263;-62
2021/12/07 11:52:03;;;;;;;;;;;6.60;92.90;;;;;;5062534;28;19939;-62
2021/12/07 11:54:35;;;;;;;;;;;6.60;92.90;;;;;;5061320;28;19917;-61
2021/12/07 11:57:01;;;;;;;;;;;6.60;93.00;;;;;;5044865;28;20061;-61
2021/12/07 11:59:26;;;;;;;;;;;6.60;93.00;;;;;;5060225;28;20003;-62
2021/12/07 12:01:52;;;;;;;;;;;6.70;93.20;;;;;;5054959;28;20212;-62
2021/12/07 12:04:18;;;;;;;;;;;6.70;93.20;;;;;;5037609;28;20052;-62
2021/12/07 12:06:50;;;;;;;;;;;6.70;93.10;;;;;;5060914;28;19920;-62
2021/12/07 12:09:16;;;;;;;;;;;6.70;93.10;;;;;;5043700;28;19923;-61
2021/12/07 12:12:00;;;;;;;;;;;6.70;93.10;;;;;;5042474;28;20311;-62
2021/12/07 12:14:40;;;;;;;;;;;6.80;93.10;;;;;;5061847;28;19935;-61
2021/12/07 12:17:21;;;;;;;;;;;6.80;93.20;;;;;;5051368;28;19924;-62
2021/12/07 12:20:05;;;;;;;;;;;6.80;93.10;;;;;;5060602;28;19908;-61
2021/12/07 12:22:38;;;;;;;;;;;6.80;93.00;;;;;;5060028;28;19955;-61
2021/12/07 12:25:07;;;;;;;;;;;6.80;93.00;;;;;;5061607;28;20526;-62
2021/12/07 12:27:33;;;;;;;;;;;6.80;93.00;;;;;;5060615;28;19913;-61
2021/12/07 12:30:00;;;;;;;;;;;6.80;93.00;;;;;;5045334;28;19917;-62
2021/12/07 12:32:36;;;;;;;;;;;6.80;92.90;;;;;;5046411;28;19912;-61
2021/12/07 12:35:02;;;;;;;;;;;6.80;92.80;;;;;;5046529;28;19920;-62
2021/12/07 12:37:29;;;;;;;;;;;6.80;92.80;;;;;;5062361;28;19915;-61
2021/12/07 12:39:55;;;;;;;;;;;6.90;92.80;;;;;;5044255;28;20529;-62
2021/12/07 12:42:26;;;;;;;;;;;6.80;92.80;;;;;;5059629;28;20277;-61
2021/12/07 12:44:59;;;;;;;;;;;6.80;92.80;;;;;;5035150;28;19943;-61
2021/12/07 12:47:26;;;;;;;;;;;6.90;92.90;;;;;;5045341;28;20024;-62
2021/12/07 12:49:51;;;;;;;;;;;6.90;92.90;;;;;;5057163;28;19916;-62
2021/12/07 12:52:22;;;;;;;;;;;6.90;93.00;;;;;;5045205;28;20515;-62
2021/12/07 12:54:47;;;;;;;;;;;6.90;92.90;;;;;;5057727;28;19912;-62
2021/12/07 12:57:16;;;;;;;;;;;6.90;92.90;;;;;;5062077;28;19990;-61
2021/12/07 12:59:43;;;;;;;;;;;6.90;92.90;;;;;;5062099;28;19993;-62
2021/12/07 13:02:09;;;;;;;;;;;6.90;92.90;;;;;;5060122;28;19939;-62
2021/12/07 13:04:34;;;;;;;;;;;7.00;92.90;;;;;;5046730;28;19963;-62
2021/12/07 13:07:23;;;;;;;;;;;6.90;92.70;;;;;;5044799;28;19916;-61
2021/12/07 13:09:52;;;;;;;;;;;7.00;92.70;;;;;;5055486;28;19919;-61
2021/12/07 13:12:22;;;;;;;;;;;7.00;92.70;;;;;;5060738;28;19908;-64
2021/12/07 13:14:55;;;;;;;;;;;7.00;92.70;;;;;;5059859;28;19908;-62
2021/12/07 13:17:22;;;;;;;;;;;7.00;92.70;;;;;;5056637;28;20280;-63
2021/12/07 13:20:06;;;;;;;;;;;7.00;92.70;;;;;;5044070;28;20311;-61
2021/12/07 13:22:52;;;;;;;;;;;7.10;92.90;;;;;;5040506;28;20541;-61
2021/12/07 13:25:18;;;;;;;;;;;7.10;92.80;;;;;;5025766;28;19924;-61
2021/12/07 13:28:01;;;;;;;;;;;7.10;92.70;;;;;;5056966;28;19992;-61
2021/12/07 13:30:35;;;;;;;;;;;7.10;92.70;;;;;;5053793;28;19912;-61
2021/12/07 13:33:23;;;;;;;;;;;7.20;92.70;;;;;;5034472;28;20413;-62
2021/12/07 13:35:49;;;;;;;;;;;7.10;92.60;;;;;;5039903;28;19966;-62
2021/12/07 13:38:24;;;;;;;;;;;7.20;92.60;;;;;;5042512;28;19916;-62
2021/12/07 13:40:51;;;;;;;;;;;7.20;92.60;;;;;;5049459;28;19924;-61
2021/12/07 13:43:28;;;;;;;;;;;7.20;92.60;;;;;;5060704;28;20367;-62
2021/12/07 13:46:05;;;;;;;;;;;7.20;92.70;;;;;;5045874;28;19943;-63
2021/12/07 13:48:31;;;;;;;;;;;7.20;92.70;;;;;;5064958;28;19908;-62
2021/12/07 13:50:56;;;;;;;;;;;7.20;92.70;;;;;;5052999;28;19978;-62
2021/12/07 13:53:22;;;;;;;;;;;7.20;92.80;;;;;;5043534;28;21352;-62
2021/12/07 13:55:47;;;;;;;;;;;7.20;92.70;;;;;;5048303;28;20046;-62
2021/12/07 13:58:14;;;;;;;;;;;7.20;92.80;;;;;;5048472;28;19923;-61
2021/12/07 14:00:40;;;;;;;;;;;7.20;92.80;;;;;;5044541;28;19913;-62
2021/12/07 14:03:06;;;;;;;;;;;7.30;92.80;;;;;;5035099;28;19931;-61
2021/12/07 14:05:33;;;;;;;;;;;7.20;92.70;;;;;;5062962;28;19924;-61
2021/12/07 14:07:59;;;;;;;;;;;7.50;92.80;;;;;;5026747;28;20001;-62
2021/12/07 14:10:31;;;;;;;;;;;7.20;92.70;;;;;;5041232;28;19913;-62
2021/12/07 14:12:57;;;;;;;;;;;7.30;92.80;;;;;;5056248;28;19998;-62
2021/12/07 14:15:27;;;;;;;;;;;7.30;92.90;;;;;;5041041;28;19975;-62
2021/12/07 14:17:54;;;;;;;;;;;7.30;92.90;;;;;;5058061;28;19909;-62
2021/12/07 14:20:26;;;;;;;;;;;7.40;92.90;;;;;;5059179;28;19912;-61
2021/12/07 14:22:52;;;;;;;;;;;7.30;92.90;;;;;;5040961;28;19920;-61
2021/12/07 14:25:18;;;;;;;;;;;7.30;92.90;;;;;;5043509;28;19969;-62
2021/12/07 14:27:44;;;;;;;;;;;7.30;92.80;;;;;;5043804;28;19990;-62
2021/12/07 14:30:11;;;;;;;;;;;7.30;92.90;;;;;;5041882;28;19912;-61
2021/12/07 14:32:38;;;;;;;;;;;7.40;92.90;;;;;;5043339;28;19909;-62
2021/12/07 14:35:04;;;;;;;;;;;7.30;92.90;;;;;;5043751;28;20411;-62
2021/12/07 14:37:29;;;;;;;;;;;7.40;92.90;;;;;;5061580;28;19974;-62
2021/12/07 14:39:55;;;;;;;;;;;7.30;92.80;;;;;;5044989;28;19908;-61
2021/12/07 14:42:21;;;;;;;;;;;7.40;92.80;;;;;;5061682;28;19924;-61
2021/12/07 14:44:48;;;;;;;;;;;7.40;92.90;;;;;;5061677;28;19916;-61
2021/12/07 14:47:14;;;;;;;;;;;7.40;92.90;;;;;;5059108;28;19915;-62
2021/12/07 14:49:42;;;;;;;;;;;7.40;92.90;;;;;;5042529;28;19916;-62
2021/12/07 14:52:11;;;;;;;;;;;7.40;93.00;;;;;;5042797;28;20359;-61
2021/12/07 14:54:36;;;;;;;;;;;7.40;93.00;;;;;;5040300;28;19923;-61
2021/12/07 14:57:02;;;;;;;;;;;7.40;93.00;;;;;;5025982;28;19912;-62
2021/12/07 14:59:27;;;;;;;;;;;7.40;93.00;;;;;;5032525;28;19927;-62
2021/12/07 15:01:54;;;;;;;;;;;7.40;93.10;;;;;;5040287;28;19912;-62
2021/12/07 15:04:19;;;;;;;;;;;7.40;93.00;;;;;;5039924;28;19924;-62
2021/12/07 15:06:48;;;;;;;;;;;7.40;92.90;;;;;;5032533;28;19920;-62
2021/12/07 15:09:14;;;;;;;;;;;7.40;92.80;;;;;;5057831;28;19924;-62
2021/12/07 15:11:40;;;;;;;;;;;7.40;92.80;;;;;;5041976;28;20033;-61
2021/12/07 15:14:06;;;;;;;;;;;7.30;92.70;;;;;;5039595;28;19923;-63
2021/12/07 15:16:32;;;;;;;;;;;7.30;92.70;;;;;;5038142;28;19912;-62
2021/12/07 15:18:57;;;;;;;;;;;7.40;92.90;;;;;;5054292;28;19942;-62
2021/12/07 15:21:23;;;;;;;;;;;7.40;92.90;;;;;;5038016;28;19977;-61
2021/12/07 15:23:52;;;;;;;;;;;7.40;93.00;;;;;;5038636;28;19916;-61
2021/12/07 15:26:19;;;;;;;;;;;7.40;93.00;;;;;;5048395;28;19962;-62
2021/12/07 15:29:00;;;;;;;;;;;7.40;93.00;;;;;;5052608;28;20351;-62
2021/12/07 15:31:26;;;;;;;;;;;7.40;93.00;;;;;;5056208;28;19916;-62
2021/12/07 15:33:52;;;;;;;;;;;7.40;93.00;;;;;;5039077;28;19908;-62
2021/12/07 15:36:18;;;;;;;;;;;7.50;93.00;;;;;;5056707;28;19985;-61
2021/12/07 15:38:44;;;;;;;;;;;7.40;92.90;;;;;;5051626;28;20306;-62
2021/12/07 15:41:10;;;;;;;;;;;7.50;93.00;;;;;;5057750;28;20011;-62
2021/12/07 15:43:39;;;;;;;;;;;7.50;92.90;;;;;;5056251;28;19923;-62
2021/12/07 15:46:04;;;;;;;;;;;7.50;92.90;;;;;;5056018;28;19980;-62
2021/12/07 15:48:31;;;;;;;;;;;7.50;93.00;;;;;;5054766;28;21159;-63
2021/12/07 15:50:59;;;;;;;;;;;7.50;93.10;;;;;;5041300;28;19928;-62
2021/12/07 15:53:27;;;;;;;;;;;7.50;93.00;;;;;;5020389;28;20956;-62
2021/12/07 15:55:52;;;;;;;;;;;7.30;92.90;;;;;;5051539;28;19934;-62
2021/12/07 15:58:19;;;;;;;;;;;7.50;93.00;;;;;;5019411;28;20165;-61
2021/12/07 16:00:49;;;;;;;;;;;7.50;93.10;;;;;;5034905;28;19916;-61
2021/12/07 16:03:15;;;;;;;;;;;7.50;93.40;;;;;;5030596;28;20033;-61
2021/12/07 16:05:41;;;;;;;;;;;7.50;93.30;;;;;;5050359;28;19912;-62
2021/12/07 16:08:08;;;;;;;;;;;7.50;93.20;;;;;;5042889;28;19978;-62
2021/12/07 16:10:34;;;;;;;;;;;7.50;93.10;;;;;;5056560;28;19916;-62
2021/12/07 16:13:04;;;;;;;;;;;7.50;93.10;;;;;;5034057;28;19928;-61
2021/12/07 16:15:29;;;;;;;;;;;7.50;93.10;;;;;;5033663;28;20378;-61